Time;durP1;ratioP1;P1;durP2;ratioP2;P2;SDS_P1;SDS_P2;PMS_P1;PMS_P2;Temp;Humidity;BMP_temperature;BMP_pressure;BME280_temperature;BME280_humidity;BME280_pressure;Samples;Min_cycle;Max_cycle;Signal;HPM_P1;HPM_P2
2023/04/10 00:02:13;;;;;;;27.90;18.20;;;;;;;;;;5050363;28;20483;-95
2023/04/10 00:04:38;;;;;;;28.87;16.60;;;;;;;;;;5048885;28;20411;-94
2023/04/10 00:07:05;;;;;;;24.33;17.00;;;;;;;;;;5044657;28;20455;-93
2023/04/10 00:09:31;;;;;;;21.73;15.90;;;;;;;;;;5044004;28;20400;-94
2023/04/10 00:11:57;;;;;;;27.73;18.53;;;;;;;;;;5040720;28;20908;-95
2023/04/10 00:14:23;;;;;;;36.47;20.10;;;;;;;;;;5021168;28;20579;-94
2023/04/10 00:16:49;;;;;;;28.00;18.57;;;;;;;;;;5038106;28;20445;-80
2023/04/10 00:19:15;;;;;;;30.70;20.17;;;;;;;;;;5039659;28;20445;-79
2023/04/10 00:21:41;;;;;;;38.53;20.70;;;;;;;;;;5037896;28;20525;-94
2023/04/10 00:24:07;;;;;;;39.47;23.73;;;;;;;;;;5039251;28;20532;-95
2023/04/10 00:26:33;;;;;;;39.87;27.50;;;;;;;;;;5038469;28;20412;-80
2023/04/10 00:28:59;;;;;;;43.17;25.97;;;;;;;;;;5055551;28;20414;-80
2023/04/10 00:31:25;;;;;;;42.90;27.80;;;;;;;;;;5038928;28;20421;-84
2023/04/10 00:33:51;;;;;;;40.10;24.33;;;;;;;;;;5055304;28;20401;-84
2023/04/10 00:36:17;;;;;;;40.87;25.23;;;;;;;;;;5036714;28;20418;-79
2023/04/10 00:38:43;;;;;;;39.33;23.47;;;;;;;;;;5036682;28;20493;-79
2023/04/10 00:41:09;;;;;;;32.47;21.30;;;;;;;;;;5053627;28;20554;-87
2023/04/10 00:43:35;;;;;;;32.07;18.93;;;;;;;;;;5035751;28;20425;-81
2023/04/10 00:46:01;;;;;;;25.60;18.87;;;;;;;;;;5053573;28;20451;-80
2023/04/10 00:48:27;;;;;;;31.53;18.40;;;;;;;;;;5053684;28;20955;-86
2023/04/10 00:50:53;;;;;;;27.73;18.80;;;;;;;;;;5035740;28;20548;-90
2023/04/10 00:53:20;;;;;;;29.13;17.90;;;;;;;;;;5035476;28;20511;-80
2023/04/10 00:55:46;;;;;;;31.23;16.53;;;;;;;;;;5036001;28;20429;-89
2023/04/10 00:58:13;;;;;;;29.37;20.30;;;;;;;;;;5035693;28;20469;-93
2023/04/10 01:00:40;;;;;;;36.13;22.30;;;;;;;;;;5026422;28;20888;-93
2023/04/10 01:03:06;;;;;;;39.53;22.83;;;;;;;;;;5035863;28;20484;-88
2023/04/10 01:05:37;;;;;;;34.63;22.50;;;;;;;;;;5036229;28;20458;-94
2023/04/10 01:08:06;;;;;;;31.73;20.77;;;;;;;;;;5035508;28;20406;-81
2023/04/10 01:10:44;;;;;;;34.33;21.77;;;;;;;;;;5035981;28;20415;-93
2023/04/10 01:13:50;;;;;;;33.53;21.13;;;;;;;;;;5036534;28;20901;-81
2023/04/10 01:16:24;;;;;;;26.87;19.30;;;;;;;;;;4939367;29;20417;-81
2023/04/10 01:18:56;;;;;;;28.50;19.40;;;;;;;;;;4962012;29;20416;-95
2023/04/10 01:21:26;;;;;;;30.97;19.20;;;;;;;;;;5000421;28;20469;-95
2023/04/10 01:23:52;;;;;;;26.00;17.60;;;;;;;;;;5059144;28;20413;-81
2023/04/10 01:26:26;;;;;;;29.57;18.33;;;;;;;;;;5045261;28;20450;-95
2023/04/10 01:28:54;;;;;;;26.20;16.80;;;;;;;;;;5036899;28;20420;-81
2023/04/10 01:31:32;;;;;;;26.67;16.83;;;;;;;;;;5042024;28;20429;-92
2023/04/10 01:34:01;;;;;;;23.90;17.83;;;;;;;;;;5048133;28;20413;-94
2023/04/10 01:36:31;;;;;;;24.43;15.23;;;;;;;;;;5040882;28;20410;-96
2023/04/10 01:38:58;;;;;;;28.90;18.63;;;;;;;;;;5041079;28;20942;-80
2023/04/10 01:41:25;;;;;;;27.60;18.57;;;;;;;;;;5040403;28;20797;-81
2023/04/10 01:43:52;;;;;;;23.90;15.50;;;;;;;;;;5058050;28;20414;-80
2023/04/10 01:46:19;;;;;;;28.10;17.53;;;;;;;;;;5061450;28;20433;-95
2023/04/10 01:48:46;;;;;;;28.17;16.00;;;;;;;;;;5042033;28;20422;-95
2023/04/10 01:51:13;;;;;;;28.00;18.43;;;;;;;;;;5059825;28;20812;-81
2023/04/10 01:53:39;;;;;;;23.63;15.17;;;;;;;;;;5061384;28;20422;-94
2023/04/10 01:56:06;;;;;;;27.43;16.80;;;;;;;;;;5048233;28;20443;-83
2023/04/10 01:58:32;;;;;;;30.40;19.10;;;;;;;;;;5064918;28;20417;-84
2023/04/10 02:00:58;;;;;;;25.67;16.87;;;;;;;;;;5058760;28;20424;-92
2023/04/10 02:03:24;;;;;;;26.53;15.77;;;;;;;;;;5056616;28;20453;-95
2023/04/10 02:06:08;;;;;;;27.87;17.70;;;;;;;;;;5061721;28;20483;-93
2023/04/10 02:08:35;;;;;;;28.50;19.30;;;;;;;;;;5043269;28;20468;-93
2023/04/10 02:11:07;;;;;;;20.67;14.53;;;;;;;;;;5039994;28;20418;-80
2023/04/10 02:13:53;;;;;;;25.57;18.17;;;;;;;;;;5056790;28;20491;-92
2023/04/10 02:16:20;;;;;;;23.77;15.77;;;;;;;;;;5044751;28;20424;-91
2023/04/10 02:18:46;;;;;;;26.70;16.60;;;;;;;;;;5044580;28;20426;-81
2023/04/10 02:21:13;;;;;;;24.27;16.37;;;;;;;;;;5045298;28;20452;-95
2023/04/10 02:23:39;;;;;;;28.53;18.13;;;;;;;;;;5061702;28;20823;-95
2023/04/10 02:26:09;;;;;;;26.27;17.33;;;;;;;;;;5043150;28;20437;-94
2023/04/10 02:28:39;;;;;;;24.90;16.20;;;;;;;;;;5040664;28;20429;-89
2023/04/10 02:31:05;;;;;;;26.57;15.47;;;;;;;;;;5057840;28;20747;-96
2023/04/10 02:33:31;;;;;;;27.20;15.60;;;;;;;;;;5040406;28;20924;-94
2023/04/10 02:35:57;;;;;;;25.40;17.13;;;;;;;;;;5040153;28;20440;-95
2023/04/10 02:38:23;;;;;;;25.33;17.00;;;;;;;;;;5041985;28;20461;-81
2023/04/10 02:40:49;;;;;;;24.67;16.10;;;;;;;;;;5060789;28;20403;-81
2023/04/10 02:43:15;;;;;;;25.80;16.63;;;;;;;;;;5059634;28;20544;-84
2023/04/10 02:45:41;;;;;;;29.50;16.97;;;;;;;;;;5059415;28;20545;-81
2023/04/10 02:48:07;;;;;;;25.47;15.97;;;;;;;;;;5060916;28;20410;-95
2023/04/10 02:50:33;;;;;;;23.40;16.57;;;;;;;;;;5059862;28;20432;-80
2023/04/10 02:52:59;;;;;;;26.70;18.17;;;;;;;;;;5057695;28;20426;-95
2023/04/10 02:55:25;;;;;;;24.80;16.33;;;;;;;;;;5060849;28;20445;-94
2023/04/10 02:57:51;;;;;;;27.20;17.57;;;;;;;;;;5061279;28;20413;-82
2023/04/10 03:00:19;;;;;;;23.83;17.47;;;;;;;;;;5015491;28;20968;-92
2023/04/10 03:02:45;;;;;;;27.13;17.07;;;;;;;;;;5055208;28;20497;-80
2023/04/10 03:05:11;;;;;;;28.20;15.67;;;;;;;;;;5055923;28;20909;-92
2023/04/10 03:07:37;;;;;;;29.90;18.70;;;;;;;;;;5055458;28;20414;-92
2023/04/10 03:10:03;;;;;;;25.03;16.30;;;;;;;;;;5057962;28;20414;-93
2023/04/10 03:12:29;;;;;;;21.00;14.30;;;;;;;;;;5039037;28;20456;-93
2023/04/10 03:14:55;;;;;;;25.40;15.60;;;;;;;;;;5055189;28;20464;-93
2023/04/10 03:17:21;;;;;;;25.37;17.10;;;;;;;;;;5057288;28;20993;-93
2023/04/10 03:19:47;;;;;;;25.23;16.00;;;;;;;;;;5055397;28;20413;-80
2023/04/10 03:22:13;;;;;;;27.77;16.40;;;;;;;;;;5055165;28;20477;-81
2023/04/10 03:24:42;;;;;;;27.17;16.23;;;;;;;;;;5061947;28;20744;-85
2023/04/10 03:27:08;;;;;;;26.50;17.70;;;;;;;;;;5064060;28;20464;-92
2023/04/10 03:29:34;;;;;;;28.30;18.00;;;;;;;;;;5055604;28;20423;-80
2023/04/10 03:32:02;;;;;;;25.90;14.20;;;;;;;;;;5054888;28;20447;-91
2023/04/10 03:34:28;;;;;;;24.80;15.57;;;;;;;;;;5054886;28;20416;-93
2023/04/10 03:36:54;;;;;;;26.37;16.60;;;;;;;;;;5053405;28;20432;-93
2023/04/10 03:39:20;;;;;;;24.03;16.07;;;;;;;;;;5059098;28;20419;-93
2023/04/10 03:41:46;;;;;;;24.53;16.80;;;;;;;;;;5058045;28;20469;-80
2023/04/10 03:44:12;;;;;;;29.83;18.90;;;;;;;;;;5063700;28;20807;-95
2023/04/10 03:46:38;;;;;;;25.37;17.37;;;;;;;;;;5077176;28;20421;-92
2023/04/10 03:49:04;;;;;;;25.57;16.70;;;;;;;;;;5075025;28;20418;-92
2023/04/10 03:51:30;;;;;;;28.90;17.83;;;;;;;;;;5057794;28;20478;-94
2023/04/10 03:53:56;;;;;;;24.40;15.53;;;;;;;;;;5074483;28;20401;-82
2023/04/10 03:56:22;;;;;;;32.13;16.83;;;;;;;;;;5074576;28;20451;-89
2023/04/10 03:58:49;;;;;;;25.43;16.10;;;;;;;;;;5073935;28;20413;-90
2023/04/10 04:01:14;;;;;;;32.40;18.10;;;;;;;;;;5074434;28;20457;-90
2023/04/10 04:03:40;;;;;;;24.90;16.23;;;;;;;;;;5076643;28;20477;-78
2023/04/10 04:06:06;;;;;;;26.20;17.40;;;;;;;;;;5057916;28;20850;-90
2023/04/10 04:08:35;;;;;;;27.50;17.63;;;;;;;;;;5059726;28;20426;-95
2023/04/10 04:11:01;;;;;;;23.70;16.53;;;;;;;;;;5077842;28;20396;-94
2023/04/10 04:13:27;;;;;;;26.90;16.50;;;;;;;;;;5062286;28;20442;-92
2023/04/10 04:15:53;;;;;;;27.30;18.27;;;;;;;;;;5059288;28;20952;-94
2023/04/10 04:18:18;;;;;;;29.83;16.27;;;;;;;;;;5056532;28;20443;-79
2023/04/10 04:20:44;;;;;;;32.40;19.00;;;;;;;;;;5073724;28;20420;-79
2023/04/10 04:23:10;;;;;;;25.07;15.73;;;;;;;;;;5074249;28;20551;-92
2023/04/10 04:25:36;;;;;;;25.67;17.60;;;;;;;;;;5074019;28;20435;-78
2023/04/10 04:28:02;;;;;;;30.07;20.13;;;;;;;;;;5072948;28;20412;-79
2023/04/10 04:30:28;;;;;;;27.13;17.27;;;;;;;;;;5072818;28;20796;-78
2023/04/10 04:32:54;;;;;;;27.33;17.73;;;;;;;;;;5073156;28;20416;-79
2023/04/10 04:35:21;;;;;;;27.10;17.47;;;;;;;;;;5074701;28;20432;-79
2023/04/10 04:37:46;;;;;;;27.57;16.67;;;;;;;;;;5080420;28;20427;-90
2023/04/10 04:40:12;;;;;;;27.70;17.30;;;;;;;;;;5034968;28;20428;-79
2023/04/10 04:42:38;;;;;;;26.07;16.80;;;;;;;;;;5043267;28;20472;-94
2023/04/10 04:45:04;;;;;;;27.30;18.27;;;;;;;;;;5062072;28;20412;-90
2023/04/10 04:47:30;;;;;;;27.23;18.23;;;;;;;;;;5055067;28;20439;-80
2023/04/10 04:49:56;;;;;;;26.73;18.17;;;;;;;;;;5072908;28;20534;-89
2023/04/10 04:52:22;;;;;;;29.10;16.07;;;;;;;;;;5073061;28;20459;-84
2023/04/10 04:54:48;;;;;;;21.57;15.00;;;;;;;;;;5075224;28;20419;-90
2023/04/10 04:57:14;;;;;;;30.58;20.67;;;;;;;;;;5071194;28;20488;-79
2023/04/10 04:59:40;;;;;;;27.63;18.27;;;;;;;;;;5073449;28;20655;-79
2023/04/10 05:02:06;;;;;;;28.77;17.50;;;;;;;;;;5055431;28;20471;-89
2023/04/10 05:04:35;;;;;;;24.23;15.43;;;;;;;;;;5075847;28;20481;-91
2023/04/10 05:07:00;;;;;;;31.20;18.00;;;;;;;;;;5072983;28;20423;-80
2023/04/10 05:09:26;;;;;;;24.00;16.63;;;;;;;;;;5062670;28;20413;-80
2023/04/10 05:11:53;;;;;;;28.80;16.97;;;;;;;;;;5072667;28;20419;-80
2023/04/10 05:14:20;;;;;;;24.53;17.53;;;;;;;;;;5072753;28;20747;-91
2023/04/10 05:16:46;;;;;;;23.20;16.90;;;;;;;;;;5073869;28;20422;-90
2023/04/10 05:19:12;;;;;;;30.17;18.57;;;;;;;;;;5074078;28;20399;-91
2023/04/10 05:21:38;;;;;;;30.27;18.00;;;;;;;;;;5073482;28;20988;-91
2023/04/10 05:24:05;;;;;;;26.53;17.60;;;;;;;;;;5077433;28;20412;-92
2023/04/10 05:26:31;;;;;;;27.40;16.73;;;;;;;;;;5078658;28;20469;-93
2023/04/10 05:28:57;;;;;;;28.70;17.23;;;;;;;;;;5075173;28;20827;-93
2023/04/10 05:31:23;;;;;;;30.00;18.63;;;;;;;;;;5076376;28;20463;-84
2023/04/10 05:33:49;;;;;;;26.80;17.50;;;;;;;;;;5073165;28;20483;-93
2023/04/10 05:36:17;;;;;;;26.10;17.70;;;;;;;;;;5073046;28;20461;-92
2023/04/10 05:38:42;;;;;;;26.93;16.57;;;;;;;;;;5072707;28;20425;-91
2023/04/10 05:41:08;;;;;;;27.57;17.57;;;;;;;;;;5088762;22;21048;-81
2023/04/10 05:43:35;;;;;;;24.10;16.80;;;;;;;;;;5058557;28;20410;-93
2023/04/10 05:46:15;;;;;;;25.77;15.30;;;;;;;;;;5056764;28;20413;-82
2023/04/10 05:48:41;;;;;;;18.03;13.07;;;;;;;;;;5057200;28;20429;-90
2023/04/10 05:51:07;;;;;;;26.60;15.87;;;;;;;;;;5055806;28;20421;-82
2023/04/10 05:53:33;;;;;;;23.50;15.30;;;;;;;;;;5056092;28;20863;-91
2023/04/10 05:56:04;;;;;;;24.40;15.90;;;;;;;;;;5056164;28;20414;-91
2023/04/10 05:58:29;;;;;;;27.23;16.73;;;;;;;;;;5057034;28;20766;-81
2023/04/10 06:00:56;;;;;;;27.60;16.77;;;;;;;;;;5055434;28;20423;-81
2023/04/10 06:03:22;;;;;;;26.23;16.73;;;;;;;;;;5056881;28;20427;-81
2023/04/10 06:05:54;;;;;;;22.07;15.17;;;;;;;;;;5055156;28;20421;-90
2023/04/10 06:08:21;;;;;;;27.40;18.40;;;;;;;;;;5047851;28;20522;-90
2023/04/10 06:10:50;;;;;;;31.13;20.60;;;;;;;;;;5053220;28;20430;-80
2023/04/10 06:13:16;;;;;;;31.70;18.80;;;;;;;;;;5056018;28;20420;-80
2023/04/10 06:15:41;;;;;;;21.90;16.07;;;;;;;;;;5041557;28;20426;-81
2023/04/10 06:18:08;;;;;;;22.80;15.53;;;;;;;;;;5032348;28;20428;-95
2023/04/10 06:20:35;;;;;;;23.70;17.37;;;;;;;;;;5037517;28;20440;-94
2023/04/10 06:23:02;;;;;;;24.80;15.97;;;;;;;;;;5057455;28;20536;-89
2023/04/10 06:25:28;;;;;;;29.33;17.33;;;;;;;;;;5044051;28;20424;-94
2023/04/10 06:27:55;;;;;;;24.57;17.57;;;;;;;;;;5042982;28;20430;-94
2023/04/10 06:30:20;;;;;;;25.37;17.27;;;;;;;;;;5031062;28;20438;-94
2023/04/10 06:32:46;;;;;;;26.00;18.10;;;;;;;;;;5045830;28;20479;-96
2023/04/10 06:35:18;;;;;;;20.53;13.17;;;;;;;;;;5027954;28;20485;-94
2023/04/10 06:37:44;;;;;;;25.33;15.57;;;;;;;;;;5059702;28;20792;-95
2023/04/10 06:40:11;;;;;;;24.73;13.80;;;;;;;;;;5058863;28;20444;-95
2023/04/10 06:42:37;;;;;;;19.73;14.83;;;;;;;;;;5020941;28;20494;-95
2023/04/10 06:45:09;;;;;;;25.07;16.17;;;;;;;;;;5061852;28;20439;-92
2023/04/10 06:47:37;;;;;;;21.83;15.93;;;;;;;;;;5062191;28;20420;-93
2023/04/10 06:50:03;;;;;;;17.80;11.90;;;;;;;;;;5060138;28;20414;-94
2023/04/10 06:52:29;;;;;;;21.50;14.87;;;;;;;;;;5058062;28;20841;-94
2023/04/10 06:54:55;;;;;;;24.47;14.73;;;;;;;;;;5057853;28;20445;-89
2023/04/10 06:57:27;;;;;;;24.67;17.20;;;;;;;;;;5059167;28;20513;-95
2023/04/10 06:59:57;;;;;;;23.47;15.03;;;;;;;;;;5057946;28;20385;-92
2023/04/10 07:02:26;;;;;;;24.13;16.57;;;;;;;;;;5037624;28;20473;-90
2023/04/10 07:04:52;;;;;;;23.10;15.63;;;;;;;;;;5058831;28;20416;-94
2023/04/10 07:07:18;;;;;;;20.80;14.37;;;;;;;;;;5061586;28;20405;-88
2023/04/10 07:09:44;;;;;;;22.00;16.50;;;;;;;;;;5023047;28;20456;-89
2023/04/10 07:12:10;;;;;;;20.83;14.40;;;;;;;;;;5054841;28;20802;-80
2023/04/10 07:14:36;;;;;;;20.40;16.07;;;;;;;;;;5054926;28;20404;-85
2023/04/10 07:17:02;;;;;;;24.67;17.50;;;;;;;;;;5056140;28;20450;-81
2023/04/10 07:19:28;;;;;;;20.43;14.63;;;;;;;;;;5043053;28;20489;-81
2023/04/10 07:21:54;;;;;;;20.40;16.33;;;;;;;;;;5042098;28;20457;-94
2023/04/10 07:24:21;;;;;;;19.50;14.23;;;;;;;;;;5059666;28;20419;-93
2023/04/10 07:26:47;;;;;;;18.43;14.60;;;;;;;;;;5022666;28;20421;-86
2023/04/10 07:29:13;;;;;;;17.20;15.20;;;;;;;;;;5040580;28;20406;-96
2023/04/10 07:31:40;;;;;;;18.73;15.07;;;;;;;;;;5043367;28;20412;-95
2023/04/10 07:34:06;;;;;;;18.73;14.43;;;;;;;;;;5060988;28;20419;-80
2023/04/10 07:36:32;;;;;;;18.50;13.73;;;;;;;;;;5056431;28;20439;-94
2023/04/10 07:38:59;;;;;;;19.60;15.30;;;;;;;;;;5057877;28;20404;-90
2023/04/10 07:41:25;;;;;;;19.10;14.70;;;;;;;;;;5055526;28;20840;-81
2023/04/10 07:43:51;;;;;;;18.47;15.70;;;;;;;;;;5052371;28;20499;-78
2023/04/10 07:46:17;;;;;;;18.10;14.83;;;;;;;;;;5010822;28;20430;-83
2023/04/10 07:48:43;;;;;;;19.80;15.60;;;;;;;;;;5034346;28;20270;-84
2023/04/10 07:51:12;;;;;;;18.20;14.87;;;;;;;;;;5049768;28;20426;-86
2023/04/10 07:53:38;;;;;;;17.13;15.10;;;;;;;;;;5052699;28;20422;-78
2023/04/10 07:56:04;;;;;;;16.07;13.23;;;;;;;;;;5052262;28;20543;-80
2023/04/10 07:58:30;;;;;;;19.27;14.97;;;;;;;;;;5049503;28;20507;-85
2023/04/10 08:00:56;;;;;;;16.47;14.53;;;;;;;;;;5034469;28;20474;-84
2023/04/10 08:03:22;;;;;;;20.83;15.57;;;;;;;;;;5049746;28;20556;-84
2023/04/10 08:05:48;;;;;;;16.90;14.63;;;;;;;;;;5049604;28;20521;-78
2023/04/10 08:08:15;;;;;;;17.20;14.63;;;;;;;;;;5044855;28;20454;-84
2023/04/10 08:10:41;;;;;;;16.33;14.50;;;;;;;;;;5042988;28;20425;-82
2023/04/10 08:13:08;;;;;;;19.70;15.23;;;;;;;;;;5052920;28;20422;-82
2023/04/10 08:15:34;;;;;;;16.57;14.77;;;;;;;;;;5044542;28;20457;-87
2023/04/10 08:18:00;;;;;;;18.57;15.30;;;;;;;;;;5051753;28;20423;-84
2023/04/10 08:20:27;;;;;;;17.67;13.97;;;;;;;;;;5044728;28;20420;-86
2023/04/10 08:22:54;;;;;;;17.83;14.93;;;;;;;;;;5067892;28;20209;-90
2023/04/10 08:25:19;;;;;;;16.73;14.57;;;;;;;;;;5069063;28;20420;-81
2023/04/10 08:27:45;;;;;;;16.63;14.70;;;;;;;;;;5034535;28;20441;-85
2023/04/10 08:30:11;;;;;;;16.33;13.87;;;;;;;;;;5032963;28;20442;-86
2023/04/10 08:32:38;;;;;;;14.83;13.20;;;;;;;;;;5060017;28;20548;-79
2023/04/10 08:35:04;;;;;;;17.37;15.53;;;;;;;;;;5053117;28;20415;-78
2023/04/10 08:37:30;;;;;;;15.13;13.67;;;;;;;;;;5052403;28;20468;-90
2023/04/10 08:39:57;;;;;;;15.40;13.80;;;;;;;;;;5056632;28;20447;-79
2023/04/10 08:42:24;;;;;;;15.17;13.53;;;;;;;;;;5070186;28;20840;-80
2023/04/10 08:44:51;;;;;;;15.50;13.60;;;;;;;;;;5069474;28;20918;-80
2023/04/10 08:47:20;;;;;;;17.63;14.70;;;;;;;;;;5058347;28;20423;-84
2023/04/10 08:49:53;;;;;;;13.57;12.20;;;;;;;;;;5048696;28;20431;-78
2023/04/10 08:52:21;;;;;;;15.57;13.93;;;;;;;;;;5069105;28;20402;-80
2023/04/10 08:54:48;;;;;;;14.67;13.27;;;;;;;;;;5052308;28;20416;-81
2023/04/10 08:57:19;;;;;;;15.60;14.00;;;;;;;;;;5052469;28;20535;-81
2023/04/10 08:59:45;;;;;;;14.67;13.17;;;;;;;;;;5052290;28;20423;-81
2023/04/10 09:02:11;;;;;;;15.73;12.37;;;;;;;;;;5060268;28;20486;-82
2023/04/10 09:04:37;;;;;;;14.60;13.10;;;;;;;;;;5021213;28;20919;-80
2023/04/10 09:07:03;;;;;;;14.10;12.60;;;;;;;;;;5057662;28;20178;-80
2023/04/10 09:09:31;;;;;;;15.13;13.63;;;;;;;;;;5040327;28;20647;-80
2023/04/10 09:12:02;;;;;;;13.90;12.47;;;;;;;;;;5051466;28;20173;-80
2023/04/10 09:14:37;;;;;;;14.67;13.37;;;;;;;;;;5051772;28;20407;-82
2023/04/10 09:17:12;;;;;;;13.10;11.87;;;;;;;;;;5042282;28;20423;-85
2023/04/10 09:19:38;;;;;;;13.57;11.93;;;;;;;;;;5053075;28;20423;-86
2023/04/10 09:22:04;;;;;;;12.50;11.30;;;;;;;;;;5037696;28;20596;-82
2023/04/10 09:24:30;;;;;;;13.73;12.27;;;;;;;;;;5054734;28;20539;-82
2023/04/10 09:26:56;;;;;;;14.07;12.67;;;;;;;;;;5050514;28;20420;-84
2023/04/10 09:29:22;;;;;;;13.90;12.40;;;;;;;;;;5055571;28;20411;-84
2023/04/10 09:31:48;;;;;;;12.73;11.50;;;;;;;;;;5055526;28;20181;-83
2023/04/10 09:34:14;;;;;;;13.30;11.20;;;;;;;;;;5055854;28;20407;-82
2023/04/10 09:36:41;;;;;;;12.73;11.43;;;;;;;;;;5055572;28;20573;-83
2023/04/10 09:39:08;;;;;;;13.07;11.80;;;;;;;;;;5055904;28;20469;-84
2023/04/10 09:41:34;;;;;;;12.33;11.13;;;;;;;;;;5032310;28;20929;-85
2023/04/10 09:44:07;;;;;;;11.20;10.20;;;;;;;;;;5060496;28;20415;-85
2023/04/10 09:46:33;;;;;;;10.33;9.03;;;;;;;;;;5039382;28;20567;-82
2023/04/10 09:49:04;;;;;;;11.77;10.47;;;;;;;;;;5058130;28;20507;-82
2023/04/10 09:51:32;;;;;;;10.90;9.57;;;;;;;;;;5053779;28;20458;-81
2023/04/10 09:54:00;;;;;;;10.17;8.97;;;;;;;;;;5039381;28;20412;-85
2023/04/10 09:56:29;;;;;;;10.73;9.70;;;;;;;;;;5034405;28;20507;-85
2023/04/10 09:58:59;;;;;;;10.17;8.67;;;;;;;;;;5049596;28;20827;-83
2023/04/10 10:01:29;;;;;;;10.27;9.30;;;;;;;;;;5030275;28;20461;-85
2023/04/10 10:03:55;;;;;;;10.80;9.80;;;;;;;;;;5054456;28;20455;-82
2023/04/10 10:06:22;;;;;;;9.93;8.93;;;;;;;;;;5055310;28;20403;-83
2023/04/10 10:08:48;;;;;;;10.23;9.23;;;;;;;;;;5065437;28;20412;-82
2023/04/10 10:11:17;;;;;;;9.90;8.90;;;;;;;;;;5052913;28;20781;-82
2023/04/10 10:13:55;;;;;;;8.80;7.60;;;;;;;;;;5052270;28;20931;-82
2023/04/10 10:16:27;;;;;;;9.70;8.63;;;;;;;;;;5054737;28;20479;-87
2023/04/10 10:19:13;;;;;;;8.67;7.77;;;;;;;;;;5052384;28;20413;-81
2023/04/10 10:21:39;;;;;;;9.00;7.67;;;;;;;;;;5054699;28;20471;-87
2023/04/10 10:24:09;;;;;;;9.47;8.57;;;;;;;;;;5055712;28;20423;-85
2023/04/10 10:26:35;;;;;;;7.63;6.93;;;;;;;;;;5053101;28;20409;-81
2023/04/10 10:29:03;;;;;;;7.70;6.97;;;;;;;;;;5053550;28;20942;-82
2023/04/10 10:31:32;;;;;;;8.03;7.20;;;;;;;;;;5055604;28;20407;-81
2023/04/10 10:33:59;;;;;;;8.70;7.40;;;;;;;;;;5052929;28;21041;-85
2023/04/10 10:36:26;;;;;;;7.67;6.87;;;;;;;;;;5053631;28;20911;-86
2023/04/10 10:39:10;;;;;;;8.50;7.13;;;;;;;;;;5052335;28;20774;-82
2023/04/10 10:42:02;;;;;;;8.10;7.30;;;;;;;;;;5053449;28;20475;-81
2023/04/10 10:44:41;;;;;;;7.03;5.70;;;;;;;;;;5039545;28;20419;-81
2023/04/10 10:47:14;;;;;;;7.30;6.43;;;;;;;;;;5057924;28;20423;-85
2023/04/10 10:49:53;;;;;;;8.60;7.70;;;;;;;;;;5074790;28;20456;-85
2023/04/10 10:52:38;;;;;;;8.00;7.30;;;;;;;;;;5056486;28;20510;-81
2023/04/10 10:55:30;;;;;;;8.13;6.87;;;;;;;;;;5056656;28;20415;-88
2023/04/10 10:58:12;;;;;;;6.87;6.27;;;;;;;;;;5073387;28;20411;-86
2023/04/10 11:01:06;;;;;;;7.10;6.40;;;;;;;;;;5056436;28;20407;-85
2023/04/10 11:03:32;;;;;;;6.53;5.93;;;;;;;;;;5070762;28;20553;-86
2023/04/10 11:06:08;;;;;;;7.77;6.73;;;;;;;;;;5056470;28;20837;-84
2023/04/10 11:08:55;;;;;;;6.50;5.87;;;;;;;;;;5048133;28;20424;-86
2023/04/10 11:11:22;;;;;;;6.40;5.70;;;;;;;;;;5016735;28;20417;-86
2023/04/10 11:13:51;;;;;;;6.30;5.70;;;;;;;;;;5033217;28;20634;-85
2023/04/10 11:16:17;;;;;;;6.70;5.13;;;;;;;;;;5033403;28;20481;-81
2023/04/10 11:18:46;;;;;;;5.30;4.80;;;;;;;;;;5033310;28;20412;-85
2023/04/10 11:21:19;;;;;;;6.50;5.40;;;;;;;;;;5034134;28;20413;-86
2023/04/10 11:24:02;;;;;;;4.73;4.07;;;;;;;;;;5034319;28;20425;-87
2023/04/10 11:26:40;;;;;;;6.43;5.40;;;;;;;;;;5033041;28;20931;-81
2023/04/10 11:29:18;;;;;;;6.07;4.73;;;;;;;;;;5033174;28;20448;-84
2023/04/10 11:31:45;;;;;;;6.07;4.90;;;;;;;;;;5033098;28;20424;-86
2023/04/10 11:34:11;;;;;;;5.03;4.53;;;;;;;;;;5032586;28;20508;-86
2023/04/10 11:36:38;;;;;;;4.20;3.37;;;;;;;;;;5034274;28;20433;-81
2023/04/10 11:39:07;;;;;;;4.90;4.40;;;;;;;;;;5032708;28;20424;-85
2023/04/10 11:41:35;;;;;;;5.70;4.80;;;;;;;;;;5032664;28;21184;-86
2023/04/10 11:44:04;;;;;;;5.60;5.10;;;;;;;;;;5032855;28;20437;-81
2023/04/10 11:46:30;;;;;;;5.73;3.90;;;;;;;;;;5034089;28;20417;-81
2023/04/10 11:48:58;;;;;;;4.80;4.40;;;;;;;;;;5034101;28;20409;-84
2023/04/10 11:51:26;;;;;;;4.73;4.10;;;;;;;;;;5033614;28;20409;-86
2023/04/10 11:54:03;;;;;;;4.63;4.20;;;;;;;;;;5033656;28;20409;-81
2023/04/10 11:56:29;;;;;;;4.40;3.70;;;;;;;;;;5051898;28;20400;-82
2023/04/10 11:58:55;;;;;;;5.27;4.43;;;;;;;;;;5034475;28;20489;-80
2023/04/10 12:01:22;;;;;;;4.77;4.23;;;;;;;;;;5052248;28;20673;-80
2023/04/10 12:03:48;;;;;;;5.13;4.20;;;;;;;;;;5052334;28;20413;-83
2023/04/10 12:06:14;;;;;;;4.67;3.93;;;;;;;;;;5033954;28;20503;-86
2023/04/10 12:08:43;;;;;;;4.97;4.47;;;;;;;;;;5034260;28;20853;-82
2023/04/10 12:11:13;;;;;;;5.13;4.40;;;;;;;;;;5034308;28;20972;-82
2023/04/10 12:13:39;;;;;;;4.63;4.23;;;;;;;;;;5034241;28;20499;-85
2023/04/10 12:16:08;;;;;;;4.40;3.90;;;;;;;;;;5034224;28;20427;-81
2023/04/10 12:18:37;;;;;;;4.47;3.57;;;;;;;;;;5034036;28;20412;-87
2023/04/10 12:21:04;;;;;;;3.67;3.10;;;;;;;;;;5033785;28;20511;-80
2023/04/10 12:23:30;;;;;;;4.00;3.57;;;;;;;;;;5034047;28;20963;-85
2023/04/10 12:26:25;;;;;;;4.60;3.30;;;;;;;;;;5051900;28;20409;-80
2023/04/10 12:28:58;;;;;;;4.50;4.10;;;;;;;;;;5017600;28;20412;-85
2023/04/10 12:31:42;;;;;;;3.73;3.13;;;;;;;;;;5033794;28;20832;-84
2023/04/10 12:34:17;;;;;;;5.23;3.60;;;;;;;;;;5050812;28;20780;-84
2023/04/10 12:36:51;;;;;;;3.70;3.23;;;;;;;;;;5033530;28;20416;-85
2023/04/10 12:39:22;;;;;;;3.53;3.17;;;;;;;;;;5034246;28;20415;-85
2023/04/10 12:41:48;;;;;;;4.30;3.90;;;;;;;;;;5033640;28;20613;-82
2023/04/10 12:44:14;;;;;;;5.13;4.20;;;;;;;;;;5033769;28;20430;-85
2023/04/10 12:46:41;;;;;;;3.53;2.90;;;;;;;;;;5033364;28;20422;-81
2023/04/10 12:49:14;;;;;;;4.17;3.77;;;;;;;;;;5050799;28;20429;-84
2023/04/10 12:51:43;;;;;;;4.50;2.83;;;;;;;;;;5040421;28;20470;-83
2023/04/10 12:54:33;;;;;;;5.20;3.90;;;;;;;;;;5048575;28;20416;-84
2023/04/10 12:56:59;;;;;;;4.93;3.60;;;;;;;;;;5024296;28;20414;-81
2023/04/10 12:59:25;;;;;;;4.10;3.30;;;;;;;;;;5033629;28;20411;-85
2023/04/10 13:01:52;;;;;;;3.20;2.90;;;;;;;;;;5051948;28;20477;-82
2023/04/10 13:04:19;;;;;;;2.90;2.43;;;;;;;;;;5050955;28;20418;-81
2023/04/10 13:06:51;;;;;;;3.47;3.00;;;;;;;;;;5033801;28;20537;-84
2023/04/10 13:09:18;;;;;;;4.67;3.93;;;;;;;;;;5051221;28;20411;-84
2023/04/10 13:11:45;;;;;;;3.60;2.77;;;;;;;;;;5033456;28;20790;-82
2023/04/10 13:14:11;;;;;;;4.20;3.30;;;;;;;;;;5051254;28;20421;-82
2023/04/10 13:16:38;;;;;;;3.77;3.20;;;;;;;;;;5050713;28;20415;-82
2023/04/10 13:19:04;;;;;;;3.60;2.97;;;;;;;;;;5050966;28;20517;-86
2023/04/10 13:21:30;;;;;;;3.23;2.57;;;;;;;;;;5033681;28;20172;-85
2023/04/10 13:23:58;;;;;;;3.83;3.43;;;;;;;;;;5011758;28;20304;-81
2023/04/10 13:26:24;;;;;;;4.07;3.07;;;;;;;;;;5033665;28;20816;-83
2023/04/10 13:28:50;;;;;;;5.90;3.70;;;;;;;;;;5033689;28;20482;-84
2023/04/10 13:31:16;;;;;;;5.53;3.77;;;;;;;;;;5051195;28;20412;-84
2023/04/10 13:33:46;;;;;;;5.40;4.30;;;;;;;;;;5033359;28;20424;-81
2023/04/10 13:36:13;;;;;;;5.00;3.40;;;;;;;;;;5032995;28;20177;-81
2023/04/10 13:38:38;;;;;;;4.17;3.57;;;;;;;;;;5032596;28;20939;-80
2023/04/10 13:41:06;;;;;;;6.37;4.03;;;;;;;;;;5032789;28;20461;-80
2023/04/10 13:43:32;;;;;;;5.20;3.50;;;;;;;;;;5033144;28;20468;-81
2023/04/10 13:45:58;;;;;;;4.03;3.20;;;;;;;;;;5033484;28;20826;-85
2023/04/10 13:48:24;;;;;;;4.77;3.70;;;;;;;;;;5051272;28;20492;-83
2023/04/10 13:50:54;;;;;;;5.90;4.10;;;;;;;;;;5050768;28;20819;-83
2023/04/10 13:53:22;;;;;;;4.70;3.73;;;;;;;;;;5051125;28;20405;-84
2023/04/10 13:55:49;;;;;;;4.40;3.90;;;;;;;;;;5052060;28;20407;-83
2023/04/10 13:58:15;;;;;;;5.67;3.70;;;;;;;;;;5043635;28;20786;-83
2023/04/10 14:00:44;;;;;;;16.10;5.40;;;;;;;;;;5048297;28;20449;-83
2023/04/10 14:03:11;;;;;;;5.83;4.80;;;;;;;;;;5041045;28;20882;-82
2023/04/10 14:05:37;;;;;;;4.17;3.23;;;;;;;;;;5049154;28;20796;-83
2023/04/10 14:08:03;;;;;;;5.37;3.90;;;;;;;;;;5037082;28;20465;-83
2023/04/10 14:10:29;;;;;;;8.97;4.60;;;;;;;;;;5054564;28;20428;-83
2023/04/10 14:12:55;;;;;;;5.13;4.30;;;;;;;;;;5055966;28;20412;-88
2023/04/10 14:15:22;;;;;;;5.73;4.47;;;;;;;;;;5038699;28;20433;-83
2023/04/10 14:17:48;;;;;;;6.20;5.13;;;;;;;;;;5038192;28;20427;-84
2023/04/10 14:20:14;;;;;;;6.40;4.30;;;;;;;;;;5038276;28;20431;-82
2023/04/10 14:22:39;;;;;;;6.37;5.20;;;;;;;;;;5037456;28;20477;-84
2023/04/10 14:25:06;;;;;;;6.63;5.07;;;;;;;;;;5054734;28;20407;-81
2023/04/10 14:27:32;;;;;;;6.17;5.10;;;;;;;;;;5036190;28;20518;-82
2023/04/10 14:30:01;;;;;;;5.93;5.33;;;;;;;;;;5037261;28;20755;-89
2023/04/10 14:32:29;;;;;;;6.87;5.33;;;;;;;;;;5108265;22;20404;-84